Trenton, Georgia
Current Conditions -  °F | °C
As of 5:53 PM on Monday 24 Nov 2014 (Local Time) from KCHA Reporting Station
Scattered Clouds Scattered Clouds  
Wind Chill: 62°   Ceiling: Unl
Heat Index: 62°   Visibility: 10mi
Dew Point: 42°   Wind: 8mph
Humidity: 48%   Direction: 230°SW
Pressure: 29.86"   Gusts: NA
Location:  34.87°N, 85.51°W
Report Text: KCHA 242253Z 23007KT 10SM FEW200 SCT250 17/06 A2986 RMK AO2 SLP109 T01670056
Loading
Personal Weather Stations






























Interactive Weather Map New forecast layout! Learn more

10-Day Weather Forecast

Advertisements
Track Severe Weather on mobile